Terminal Aerodrome Forecast
Issued by NWS

Home | Current Version | Previous Version | Text Only | Print | Product List | Glossary On
Versions: 1 2 3 4 5 6 7 8 9 10 11 12
000
FTUS44 KLIX 291700 RRA
TAFGPT
TAF
KGPT 291741Z 2918/3018 10011G18KT P6SM SCT030 BKN060 BKN200
      TEMPO 2918/2922 VRB10G20KT 3SM TSRA SCT030CB BKN040
     FM300000 14007KT P6SM VCTS BKN050CB
     FM300600 16009KT P6SM BKN025=

USA.gov is the U.S. government's official web portal to all federal, state and local government web resources and services.